sensor_id;sensor_type;location;lat;lon;timestamp;pressure;altitude;pressure_sealevel;temperature;humidity
24558;BME280;12726;49.148;8.582;2023-07-20T00:02:08;100194.28;;;18.73;58.68
24558;BME280;12726;49.148;8.582;2023-07-20T00:04:53;100192.91;;;18.66;59.21
24558;BME280;12726;49.148;8.582;2023-07-20T00:07:38;100188.00;;;18.63;60.09
24558;BME280;12726;49.148;8.582;2023-07-20T00:10:24;100195.34;;;18.57;59.74
24558;BME280;12726;49.148;8.582;2023-07-20T00:13:10;100195.88;;;18.54;59.76
24558;BME280;12726;49.148;8.582;2023-07-20T00:15:57;100193.94;;;18.50;59.64
24558;BME280;12726;49.148;8.582;2023-07-20T00:18:42;100199.66;;;18.43;59.93
24558;BME280;12726;49.148;8.582;2023-07-20T00:21:28;100193.09;;;18.39;59.93
24558;BME280;12726;49.148;8.582;2023-07-20T00:24:13;100197.69;;;18.33;60.28
24558;BME280;12726;49.148;8.582;2023-07-20T00:26:58;100197.69;;;18.28;60.56
24558;BME280;12726;49.148;8.582;2023-07-20T00:29:45;100203.97;;;18.24;61.45
24558;BME280;12726;49.148;8.582;2023-07-20T00:32:31;100201.75;;;18.21;61.23
24558;BME280;12726;49.148;8.582;2023-07-20T00:35:17;100203.41;;;18.17;61.68
24558;BME280;12726;49.148;8.582;2023-07-20T00:38:02;100209.09;;;18.15;61.21
24558;BME280;12726;49.148;8.582;2023-07-20T00:40:47;100212.63;;;18.11;62.15
24558;BME280;12726;49.148;8.582;2023-07-20T00:43:33;100217.50;;;18.04;62.59
24558;BME280;12726;49.148;8.582;2023-07-20T00:46:20;100207.91;;;17.91;63.02
24558;BME280;12726;49.148;8.582;2023-07-20T00:49:08;100213.25;;;17.71;63.12
24558;BME280;12726;49.148;8.582;2023-07-20T00:51:53;100206.06;;;17.54;63.45
24558;BME280;12726;49.148;8.582;2023-07-20T00:54:39;100212.75;;;17.42;63.84
24558;BME280;12726;49.148;8.582;2023-07-20T00:57:25;100208.91;;;17.33;65.05
24558;BME280;12726;49.148;8.582;2023-07-20T01:00:11;100207.78;;;17.29;64.93
24558;BME280;12726;49.148;8.582;2023-07-20T01:02:56;100222.75;;;17.26;65.38
24558;BME280;12726;49.148;8.582;2023-07-20T01:05:52;100215.09;;;17.23;65.53
24558;BME280;12726;49.148;8.582;2023-07-20T01:08:44;100213.16;;;17.18;66.08
24558;BME280;12726;49.148;8.582;2023-07-20T01:11:36;100215.28;;;17.11;66.66
24558;BME280;12726;49.148;8.582;2023-07-20T01:14:23;100211.69;;;17.06;66.94
24558;BME280;12726;49.148;8.582;2023-07-20T01:17:09;100209.53;;;17.08;67.54
24558;BME280;12726;49.148;8.582;2023-07-20T01:19:54;100207.88;;;17.07;67.39
24558;BME280;12726;49.148;8.582;2023-07-20T01:23:12;100205.41;;;17.05;67.22
24558;BME280;12726;49.148;8.582;2023-07-20T01:26:12;100213.06;;;17.08;66.72
24558;BME280;12726;49.148;8.582;2023-07-20T01:29:37;100209.28;;;17.09;66.93
24558;BME280;12726;49.148;8.582;2023-07-20T01:32:28;100207.63;;;17.08;66.85
24558;BME280;12726;49.148;8.582;2023-07-20T01:35:16;100211.16;;;17.09;66.59
24558;BME280;12726;49.148;8.582;2023-07-20T01:38:02;100206.31;;;17.11;66.27
24558;BME280;12726;49.148;8.582;2023-07-20T01:40:49;100207.63;;;17.08;66.14
24558;BME280;12726;49.148;8.582;2023-07-20T01:43:35;100207.34;;;17.05;66.63
24558;BME280;12726;49.148;8.582;2023-07-20T01:46:21;100205.13;;;17.02;66.56
24558;BME280;12726;49.148;8.582;2023-07-20T01:49:07;100209.47;;;16.98;67.10
24558;BME280;12726;49.148;8.582;2023-07-20T01:51:53;100199.09;;;16.95;67.14
24558;BME280;12726;49.148;8.582;2023-07-20T01:54:38;100202.63;;;16.95;67.36
24558;BME280;12726;49.148;8.582;2023-07-20T01:57:23;100204.53;;;16.95;67.24
24558;BME280;12726;49.148;8.582;2023-07-20T02:00:10;100205.34;;;16.95;67.77
24558;BME280;12726;49.148;8.582;2023-07-20T02:02:56;100202.59;;;16.90;68.02
24558;BME280;12726;49.148;8.582;2023-07-20T02:05:43;100205.78;;;16.82;68.55
24558;BME280;12726;49.148;8.582;2023-07-20T02:08:28;100212.25;;;16.76;69.04
24558;BME280;12726;49.148;8.582;2023-07-20T02:11:14;100209.69;;;16.64;69.78
24558;BME280;12726;49.148;8.582;2023-07-20T02:13:59;100211.28;;;16.60;70.70
24558;BME280;12726;49.148;8.582;2023-07-20T02:16:45;100204.66;;;16.56;70.59
24558;BME280;12726;49.148;8.582;2023-07-20T02:19:30;100210.09;;;16.56;70.32
24558;BME280;12726;49.148;8.582;2023-07-20T02:22:17;100216.72;;;16.60;70.25
24558;BME280;12726;49.148;8.582;2023-07-20T02:25:03;100214.00;;;16.60;70.11
24558;BME280;12726;49.148;8.582;2023-07-20T02:27:49;100210.75;;;16.63;69.68
24558;BME280;12726;49.148;8.582;2023-07-20T02:30:37;100208.03;;;16.63;70.22
24558;BME280;12726;49.148;8.582;2023-07-20T02:33:23;100208.03;;;16.63;70.92
24558;BME280;12726;49.148;8.582;2023-07-20T02:36:08;100212.66;;;16.63;70.43
24558;BME280;12726;49.148;8.582;2023-07-20T02:38:55;100217.53;;;16.61;70.56
24558;BME280;12726;49.148;8.582;2023-07-20T02:41:41;100212.28;;;16.54;70.94
24558;BME280;12726;49.148;8.582;2023-07-20T02:44:28;100216.06;;;16.53;71.35
24558;BME280;12726;49.148;8.582;2023-07-20T02:47:14;100211.59;;;16.42;71.93
24558;BME280;12726;49.148;8.582;2023-07-20T02:49:59;100215.56;;;16.34;72.45
24558;BME280;12726;49.148;8.582;2023-07-20T02:52:44;100215.22;;;16.26;73.36
24558;BME280;12726;49.148;8.582;2023-07-20T02:55:31;100218.38;;;16.18;73.68
24558;BME280;12726;49.148;8.582;2023-07-20T02:58:16;100215.88;;;16.11;74.17
24558;BME280;12726;49.148;8.582;2023-07-20T03:01:02;100210.63;;;16.04;74.67
24558;BME280;12726;49.148;8.582;2023-07-20T03:03:47;100211.69;;;16.03;74.90
24558;BME280;12726;49.148;8.582;2023-07-20T03:06:33;100224.13;;;15.99;75.25
24558;BME280;12726;49.148;8.582;2023-07-20T03:09:20;100218.97;;;15.98;75.15
24558;BME280;12726;49.148;8.582;2023-07-20T03:12:08;100220.28;;;15.95;75.43
24558;BME280;12726;49.148;8.582;2023-07-20T03:14:53;100209.09;;;15.92;76.11
24558;BME280;12726;49.148;8.582;2023-07-20T03:17:40;100215.63;;;15.91;76.06
24558;BME280;12726;49.148;8.582;2023-07-20T03:20:26;100216.69;;;15.90;76.15
24558;BME280;12726;49.148;8.582;2023-07-20T03:23:11;100225.38;;;15.92;76.25
24558;BME280;12726;49.148;8.582;2023-07-20T03:25:57;100228.91;;;15.92;75.61
24558;BME280;12726;49.148;8.582;2023-07-20T03:28:43;100230.03;;;15.91;75.94
24558;BME280;12726;49.148;8.582;2023-07-20T03:31:28;100231.09;;;15.90;75.53
24558;BME280;12726;49.148;8.582;2023-07-20T03:34:14;100232.72;;;15.91;75.74
24558;BME280;12726;49.148;8.582;2023-07-20T03:36:59;100236.00;;;15.93;75.99
24558;BME280;12726;49.148;8.582;2023-07-20T03:39:44;100238.16;;;15.91;75.79
24558;BME280;12726;49.148;8.582;2023-07-20T03:42:30;100240.06;;;15.91;76.12
24558;BME280;12726;49.148;8.582;2023-07-20T03:45:17;100229.69;;;15.88;75.90
24558;BME280;12726;49.148;8.582;2023-07-20T03:48:02;100232.88;;;15.85;76.15
24558;BME280;12726;49.148;8.582;2023-07-20T03:50:49;100238.91;;;15.87;76.35
24558;BME280;12726;49.148;8.582;2023-07-20T03:53:34;100244.66;;;15.90;76.61
24558;BME280;12726;49.148;8.582;2023-07-20T03:56:19;100248.50;;;15.94;76.84
24558;BME280;12726;49.148;8.582;2023-07-20T03:59:05;100247.75;;;15.99;76.41
24558;BME280;12726;49.148;8.582;2023-07-20T04:01:52;100246.44;;;16.01;76.20
24558;BME280;12726;49.148;8.582;2023-07-20T04:04:37;100255.44;;;16.07;76.59
24558;BME280;12726;49.148;8.582;2023-07-20T04:07:22;100260.16;;;16.12;76.67
24558;BME280;12726;49.148;8.582;2023-07-20T04:10:08;100253.13;;;16.16;76.22
24558;BME280;12726;49.148;8.582;2023-07-20T04:12:53;100261.59;;;16.19;75.72
24558;BME280;12726;49.148;8.582;2023-07-20T04:15:42;100254.56;;;16.23;75.98
24558;BME280;12726;49.148;8.582;2023-07-20T04:18:29;100256.28;;;16.29;76.00
24558;BME280;12726;49.148;8.582;2023-07-20T04:21:14;100256.59;;;16.33;75.82
24558;BME280;12726;49.148;8.582;2023-07-20T04:23:59;100258.78;;;16.36;75.76
24558;BME280;12726;49.148;8.582;2023-07-20T04:26:45;100259.31;;;16.33;75.25
24558;BME280;12726;49.148;8.582;2023-07-20T04:29:30;100263.75;;;16.39;76.59
24558;BME280;12726;49.148;8.582;2023-07-20T04:32:16;100263.50;;;16.40;75.59
24558;BME280;12726;49.148;8.582;2023-07-20T04:35:05;100264.59;;;16.44;75.05
24558;BME280;12726;49.148;8.582;2023-07-20T04:37:51;100264.97;;;16.53;76.14
24558;BME280;12726;49.148;8.582;2023-07-20T04:40:36;100266.09;;;16.57;74.40
24558;BME280;12726;49.148;8.582;2023-07-20T04:43:22;100269.91;;;16.56;74.42
24558;BME280;12726;49.148;8.582;2023-07-20T04:46:07;100270.00;;;16.61;75.48
24558;BME280;12726;49.148;8.582;2023-07-20T04:48:53;100257.28;;;16.67;75.45
24558;BME280;12726;49.148;8.582;2023-07-20T04:51:40;100263.53;;;16.67;74.73
24558;BME280;12726;49.148;8.582;2023-07-20T04:54:25;100256.50;;;16.71;75.03
24558;BME280;12726;49.148;8.582;2023-07-20T04:57:11;100255.19;;;16.74;73.45
24558;BME280;12726;49.148;8.582;2023-07-20T04:59:57;100251.44;;;16.80;73.69
24558;BME280;12726;49.148;8.582;2023-07-20T05:02:42;100259.38;;;16.87;74.72
24558;BME280;12726;49.148;8.582;2023-07-20T05:05:28;100256.16;;;16.90;74.35
24558;BME280;12726;49.148;8.582;2023-07-20T05:08:14;100260.91;;;17.04;75.07
24558;BME280;12726;49.148;8.582;2023-07-20T05:11:00;100257.69;;;17.12;73.93
24558;BME280;12726;49.148;8.582;2023-07-20T05:13:45;100270.84;;;17.20;73.59
24558;BME280;12726;49.148;8.582;2023-07-20T05:16:31;100264.66;;;17.30;74.25
24558;BME280;12726;49.148;8.582;2023-07-20T05:19:16;100263.34;;;17.33;73.14
24558;BME280;12726;49.148;8.582;2023-07-20T05:22:02;100263.94;;;17.40;71.81
24558;BME280;12726;49.148;8.582;2023-07-20T05:24:49;100256.59;;;17.40;71.62
24558;BME280;12726;49.148;8.582;2023-07-20T05:27:35;100263.97;;;17.45;70.94
24558;BME280;12726;49.148;8.582;2023-07-20T05:30:21;100261.00;;;17.51;71.65
24558;BME280;12726;49.148;8.582;2023-07-20T05:33:06;100260.84;;;17.63;70.55
24558;BME280;12726;49.148;8.582;2023-07-20T05:35:52;100258.19;;;17.73;71.42
24558;BME280;12726;49.148;8.582;2023-07-20T05:38:37;100258.56;;;17.87;70.09
24558;BME280;12726;49.148;8.582;2023-07-20T05:41:24;100255.31;;;17.90;69.58
24558;BME280;12726;49.148;8.582;2023-07-20T05:44:09;100253.19;;;18.02;69.65
24558;BME280;12726;49.148;8.582;2023-07-20T05:46:55;100259.22;;;18.09;68.63
24558;BME280;12726;49.148;8.582;2023-07-20T05:49:40;100260.34;;;18.18;68.05
24558;BME280;12726;49.148;8.582;2023-07-20T05:52:25;100261.97;;;18.19;68.50
24558;BME280;12726;49.148;8.582;2023-07-20T05:55:11;100263.69;;;18.35;69.34
24558;BME280;12726;49.148;8.582;2023-07-20T05:57:58;100260.16;;;18.40;68.77
24558;BME280;12726;49.148;8.582;2023-07-20T06:00:43;100250.63;;;18.43;67.02
24558;BME280;12726;49.148;8.582;2023-07-20T06:03:28;100250.66;;;18.53;68.43
24558;BME280;12726;49.148;8.582;2023-07-20T06:06:14;100263.81;;;18.61;67.56
24558;BME280;12726;49.148;8.582;2023-07-20T06:09:00;100260.81;;;18.77;66.78
24558;BME280;12726;49.148;8.582;2023-07-20T06:11:47;100265.47;;;18.77;67.38
24558;BME280;12726;49.148;8.582;2023-07-20T06:14:34;100273.66;;;18.82;67.31
24558;BME280;12726;49.148;8.582;2023-07-20T06:17:19;100269.25;;;18.76;66.70
24558;BME280;12726;49.148;8.582;2023-07-20T06:20:06;100278.59;;;19.05;68.10
24558;BME280;12726;49.148;8.582;2023-07-20T06:22:52;100271.22;;;19.06;65.44
24558;BME280;12726;49.148;8.582;2023-07-20T06:25:37;100265.78;;;19.16;65.01
24558;BME280;12726;49.148;8.582;2023-07-20T06:28:22;100278.59;;;19.26;64.52
24558;BME280;12726;49.148;8.582;2023-07-20T06:31:09;100277.00;;;19.25;65.15
24558;BME280;12726;49.148;8.582;2023-07-20T06:33:54;100270.16;;;19.73;64.32
24558;BME280;12726;49.148;8.582;2023-07-20T06:36:40;100269.72;;;20.25;61.29
24558;BME280;12726;49.148;8.582;2023-07-20T06:39:25;100267.09;;;20.64;60.53
24558;BME280;12726;49.148;8.582;2023-07-20T06:42:10;100273.28;;;20.85;57.91
24558;BME280;12726;49.148;8.582;2023-07-20T06:44:56;100278.63;;;21.39;58.42
24558;BME280;12726;49.148;8.582;2023-07-20T06:47:43;100267.47;;;20.91;57.30
24558;BME280;12726;49.148;8.582;2023-07-20T06:50:29;100271.16;;;21.16;57.48
24558;BME280;12726;49.148;8.582;2023-07-20T06:53:14;100272.75;;;20.78;57.96
24558;BME280;12726;49.148;8.582;2023-07-20T06:55:59;100272.50;;;21.18;57.63
24558;BME280;12726;49.148;8.582;2023-07-20T06:58:45;100273.28;;;22.34;54.23
24558;BME280;12726;49.148;8.582;2023-07-20T07:01:30;100274.53;;;21.70;55.04
24558;BME280;12726;49.148;8.582;2023-07-20T07:04:17;100275.91;;;21.68;55.70
24558;BME280;12726;49.148;8.582;2023-07-20T07:07:02;100283.94;;;21.88;53.97
24558;BME280;12726;49.148;8.582;2023-07-20T07:09:48;100273.75;;;22.60;53.22
24558;BME280;12726;49.148;8.582;2023-07-20T07:12:33;100273.44;;;23.04;51.81
24558;BME280;12726;49.148;8.582;2023-07-20T07:15:19;100281.81;;;23.64;49.65
24558;BME280;12726;49.148;8.582;2023-07-20T07:18:04;100284.19;;;22.82;51.56
24558;BME280;12726;49.148;8.582;2023-07-20T07:20:54;100282.97;;;22.50;52.99
24558;BME280;12726;49.148;8.582;2023-07-20T07:23:39;100278.38;;;22.64;53.64
24558;BME280;12726;49.148;8.582;2023-07-20T07:26:24;100276.94;;;23.42;51.92
24558;BME280;12726;49.148;8.582;2023-07-20T07:29:10;100276.38;;;23.26;49.29
24558;BME280;12726;49.148;8.582;2023-07-20T07:31:55;100274.63;;;24.09;48.97
24558;BME280;12726;49.148;8.582;2023-07-20T07:34:41;100269.50;;;23.75;48.75
24558;BME280;12726;49.148;8.582;2023-07-20T07:37:27;100269.22;;;23.76;49.20
24558;BME280;12726;49.148;8.582;2023-07-20T07:40:14;100269.53;;;24.16;47.70
24558;BME280;12726;49.148;8.582;2023-07-20T07:42:59;100267.28;;;24.59;47.08
24558;BME280;12726;49.148;8.582;2023-07-20T07:45:45;100280.63;;;24.79;45.12
24558;BME280;12726;49.148;8.582;2023-07-20T07:48:30;100261.69;;;24.64;47.46
24558;BME280;12726;49.148;8.582;2023-07-20T07:51:16;100277.47;;;25.75;44.89
24558;BME280;12726;49.148;8.582;2023-07-20T07:54:03;100275.44;;;25.36;42.34
24558;BME280;12726;49.148;8.582;2023-07-20T07:56:48;100277.78;;;24.71;42.27
24558;BME280;12726;49.148;8.582;2023-07-20T07:59:35;100274.84;;;25.03;43.33
24558;BME280;12726;49.148;8.582;2023-07-20T08:02:21;100276.59;;;25.66;41.16
24558;BME280;12726;49.148;8.582;2023-07-20T08:05:07;100275.44;;;25.14;42.13
24558;BME280;12726;49.148;8.582;2023-07-20T08:07:52;100262.22;;;24.39;45.52
24558;BME280;12726;49.148;8.582;2023-07-20T08:10:38;100270.44;;;25.91;43.87
24558;BME280;12726;49.148;8.582;2023-07-20T08:13:24;100281.56;;;25.78;41.39
24558;BME280;12726;49.148;8.582;2023-07-20T08:16:12;100274.59;;;24.91;43.84
24558;BME280;12726;49.148;8.582;2023-07-20T08:18:59;100273.22;;;25.02;43.44
24558;BME280;12726;49.148;8.582;2023-07-20T08:21:44;100275.13;;;25.60;42.76
24558;BME280;12726;49.148;8.582;2023-07-20T08:24:31;100278.69;;;25.91;40.88
24558;BME280;12726;49.148;8.582;2023-07-20T08:27:17;100270.59;;;26.26;42.55
24558;BME280;12726;49.148;8.582;2023-07-20T08:30:04;100274.13;;;27.00;39.85
24558;BME280;12726;49.148;8.582;2023-07-20T08:32:50;100279.31;;;25.88;41.12
24558;BME280;12726;49.148;8.582;2023-07-20T08:35:35;100272.97;;;25.57;42.49
24558;BME280;12726;49.148;8.582;2023-07-20T08:38:21;100276.13;;;25.42;43.70
24558;BME280;12726;49.148;8.582;2023-07-20T08:41:06;100275.28;;;24.96;42.53
24558;BME280;12726;49.148;8.582;2023-07-20T08:43:54;100276.28;;;25.45;41.76
24558;BME280;12726;49.148;8.582;2023-07-20T08:46:43;100271.72;;;24.82;42.85
24558;BME280;12726;49.148;8.582;2023-07-20T08:49:29;100262.63;;;24.46;43.85
24558;BME280;12726;49.148;8.582;2023-07-20T08:52:19;100270.88;;;24.46;44.69
24558;BME280;12726;49.148;8.582;2023-07-20T08:55:05;100266.09;;;24.38;44.69
24558;BME280;12726;49.148;8.582;2023-07-20T08:57:53;100275.28;;;24.96;43.30
24558;BME280;12726;49.148;8.582;2023-07-20T09:00:41;100272.28;;;25.73;42.48
24558;BME280;12726;49.148;8.582;2023-07-20T09:03:26;100255.75;;;26.78;40.69
24558;BME280;12726;49.148;8.582;2023-07-20T09:06:12;100255.91;;;27.08;39.81
24558;BME280;12726;49.148;8.582;2023-07-20T09:08:57;100265.56;;;25.66;41.40
24558;BME280;12726;49.148;8.582;2023-07-20T09:11:42;100269.53;;;26.61;40.59
24558;BME280;12726;49.148;8.582;2023-07-20T09:14:30;100265.84;;;27.35;38.39
24558;BME280;12726;49.148;8.582;2023-07-20T09:17:19;100260.44;;;27.38;37.97
24558;BME280;12726;49.148;8.582;2023-07-20T09:20:06;100265.34;;;27.33;38.73
24558;BME280;12726;49.148;8.582;2023-07-20T09:22:54;100257.22;;;27.02;39.32
24558;BME280;12726;49.148;8.582;2023-07-20T09:25:40;100266.75;;;25.73;43.05
24558;BME280;12726;49.148;8.582;2023-07-20T09:28:25;100265.59;;;24.99;42.11
24558;BME280;12726;49.148;8.582;2023-07-20T09:31:15;100271.06;;;24.63;43.59
24558;BME280;12726;49.148;8.582;2023-07-20T09:34:04;100258.78;;;25.19;41.33
24558;BME280;12726;49.148;8.582;2023-07-20T09:36:50;100271.16;;;25.74;40.38
24558;BME280;12726;49.148;8.582;2023-07-20T09:39:42;100263.16;;;25.42;39.76
24558;BME280;12726;49.148;8.582;2023-07-20T09:42:29;100253.47;;;26.89;38.52
24558;BME280;12726;49.148;8.582;2023-07-20T09:45:14;100256.88;;;26.77;36.70
24558;BME280;12726;49.148;8.582;2023-07-20T09:48:03;100256.69;;;27.51;37.08
24558;BME280;12726;49.148;8.582;2023-07-20T09:50:52;100248.69;;;27.50;36.42
24558;BME280;12726;49.148;8.582;2023-07-20T09:53:38;100255.63;;;25.79;37.83
24558;BME280;12726;49.148;8.582;2023-07-20T09:56:24;100252.44;;;26.42;40.05
24558;BME280;12726;49.148;8.582;2023-07-20T09:59:10;100250.19;;;27.47;36.05
24558;BME280;12726;49.148;8.582;2023-07-20T10:01:58;100244.59;;;27.82;34.01
24558;BME280;12726;49.148;8.582;2023-07-20T10:04:46;100249.44;;;26.95;36.37
24558;BME280;12726;49.148;8.582;2023-07-20T10:07:35;100239.38;;;26.99;36.51
24558;BME280;12726;49.148;8.582;2023-07-20T10:10:21;100247.00;;;26.94;36.92
24558;BME280;12726;49.148;8.582;2023-07-20T10:13:09;100236.38;;;27.94;35.66
24558;BME280;12726;49.148;8.582;2023-07-20T10:16:01;100234.06;;;28.63;35.63
24558;BME280;12726;49.148;8.582;2023-07-20T10:18:51;100232.16;;;28.34;33.46
24558;BME280;12726;49.148;8.582;2023-07-20T10:21:42;100225.38;;;26.96;33.78
24558;BME280;12726;49.148;8.582;2023-07-20T10:24:34;100223.59;;;26.91;37.73
24558;BME280;12726;49.148;8.582;2023-07-20T10:27:20;100226.78;;;27.36;34.81
24558;BME280;12726;49.148;8.582;2023-07-20T10:30:07;100215.66;;;28.09;34.64
24558;BME280;12726;49.148;8.582;2023-07-20T10:32:53;100220.19;;;27.84;31.57
24558;BME280;12726;49.148;8.582;2023-07-20T10:35:53;100208.81;;;26.96;33.39
24558;BME280;12726;49.148;8.582;2023-07-20T10:38:40;100215.16;;;27.77;34.91
24558;BME280;12726;49.148;8.582;2023-07-20T10:41:31;100206.66;;;27.27;33.31
24558;BME280;12726;49.148;8.582;2023-07-20T10:44:19;100201.78;;;27.24;34.53
24558;BME280;12726;49.148;8.582;2023-07-20T10:47:09;100198.41;;;28.03;33.63
24558;BME280;12726;49.148;8.582;2023-07-20T10:49:59;100186.69;;;28.35;32.77
24558;BME280;12726;49.148;8.582;2023-07-20T10:53:04;100185.47;;;28.66;30.98
24558;BME280;12726;49.148;8.582;2023-07-20T10:56:06;100179.13;;;28.24;30.09
24558;BME280;12726;49.148;8.582;2023-07-20T10:58:57;100186.13;;;27.54;31.04
24558;BME280;12726;49.148;8.582;2023-07-20T11:01:44;100179.78;;;26.16;33.79
24558;BME280;12726;49.148;8.582;2023-07-20T11:04:38;100177.75;;;26.81;33.08
24558;BME280;12726;49.148;8.582;2023-07-20T11:07:36;100180.69;;;28.04;33.65
24558;BME280;12726;49.148;8.582;2023-07-20T11:10:22;100179.00;;;28.62;32.77
24558;BME280;12726;49.148;8.582;2023-07-20T11:13:21;100176.00;;;28.25;30.36
24558;BME280;12726;49.148;8.582;2023-07-20T11:16:08;100166.88;;;27.57;31.54
24558;BME280;12726;49.148;8.582;2023-07-20T11:18:54;100162.69;;;27.43;31.95
24558;BME280;12726;49.148;8.582;2023-07-20T11:21:42;100163.69;;;27.85;31.62
24558;BME280;12726;49.148;8.582;2023-07-20T11:24:27;100148.97;;;27.08;31.14
24558;BME280;12726;49.148;8.582;2023-07-20T11:27:13;100158.94;;;27.47;32.66
24558;BME280;12726;49.148;8.582;2023-07-20T11:29:58;100152.44;;;27.90;31.15
24558;BME280;12726;49.148;8.582;2023-07-20T11:32:50;100155.16;;;27.05;32.58
24558;BME280;12726;49.148;8.582;2023-07-20T11:35:36;100144.50;;;28.09;30.55
24558;BME280;12726;49.148;8.582;2023-07-20T11:38:27;100149.41;;;28.54;29.88
24558;BME280;12726;49.148;8.582;2023-07-20T11:41:13;100155.16;;;28.90;28.58
24558;BME280;12726;49.148;8.582;2023-07-20T11:43:58;100141.53;;;26.74;30.42
24558;BME280;12726;49.148;8.582;2023-07-20T11:46:44;100140.63;;;27.34;30.33
24558;BME280;12726;49.148;8.582;2023-07-20T11:49:47;100140.50;;;28.27;31.29
24558;BME280;12726;49.148;8.582;2023-07-20T11:52:38;100139.34;;;28.28;29.89
24558;BME280;12726;49.148;8.582;2023-07-20T11:55:24;100136.94;;;28.48;33.10
24558;BME280;12726;49.148;8.582;2023-07-20T11:58:09;100124.56;;;27.19;32.62
24558;BME280;12726;49.148;8.582;2023-07-20T12:00:55;100123.50;;;26.77;32.25
24558;BME280;12726;49.148;8.582;2023-07-20T12:03:42;100124.59;;;27.02;32.64
24558;BME280;12726;49.148;8.582;2023-07-20T12:06:29;100113.69;;;27.52;31.56
24558;BME280;12726;49.148;8.582;2023-07-20T12:09:17;100115.91;;;28.26;32.28
24558;BME280;12726;49.148;8.582;2023-07-20T12:12:09;100106.06;;;28.37;30.38
24558;BME280;12726;49.148;8.582;2023-07-20T12:14:55;100112.88;;;27.89;29.83
24558;BME280;12726;49.148;8.582;2023-07-20T12:17:42;100115.38;;;27.36;31.41
24558;BME280;12726;49.148;8.582;2023-07-20T12:20:29;100103.59;;;25.80;33.52
24558;BME280;12726;49.148;8.582;2023-07-20T12:23:15;100109.94;;;25.41;34.49
24558;BME280;12726;49.148;8.582;2023-07-20T12:26:02;100109.06;;;25.63;36.37
24558;BME280;12726;49.148;8.582;2023-07-20T12:28:47;100103.44;;;25.77;34.04
24558;BME280;12726;49.148;8.582;2023-07-20T12:31:36;100099.81;;;26.33;35.63
24558;BME280;12726;49.148;8.582;2023-07-20T12:34:21;100092.94;;;26.99;33.90
24558;BME280;12726;49.148;8.582;2023-07-20T12:37:07;100094.84;;;27.54;32.57
24558;BME280;12726;49.148;8.582;2023-07-20T12:39:53;100089.47;;;27.57;30.54
24558;BME280;12726;49.148;8.582;2023-07-20T12:42:39;100096.63;;;27.50;32.36
24558;BME280;12726;49.148;8.582;2023-07-20T12:45:24;100077.44;;;27.53;32.44
24558;BME280;12726;49.148;8.582;2023-07-20T12:48:09;100084.06;;;27.23;32.44
24558;BME280;12726;49.148;8.582;2023-07-20T12:50:55;100081.72;;;27.72;30.69
24558;BME280;12726;49.148;8.582;2023-07-20T12:53:42;100079.72;;;27.81;29.73
24558;BME280;12726;49.148;8.582;2023-07-20T12:56:29;100070.56;;;26.32;32.59
24558;BME280;12726;49.148;8.582;2023-07-20T12:59:14;100069.44;;;26.50;34.43
24558;BME280;12726;49.148;8.582;2023-07-20T13:02:00;100063.09;;;26.41;32.41
24558;BME280;12726;49.148;8.582;2023-07-20T13:04:45;100069.44;;;26.50;33.49
24558;BME280;12726;49.148;8.582;2023-07-20T13:07:32;100061.38;;;27.00;32.64
24558;BME280;12726;49.148;8.582;2023-07-20T13:10:17;100062.44;;;26.44;33.33
24558;BME280;12726;49.148;8.582;2023-07-20T13:13:04;100068.44;;;25.46;34.18
24558;BME280;12726;49.148;8.582;2023-07-20T13:15:49;100061.00;;;25.07;34.44
24558;BME280;12726;49.148;8.582;2023-07-20T13:18:35;100060.88;;;25.60;34.87
24558;BME280;12726;49.148;8.582;2023-07-20T13:21:20;100055.91;;;25.88;34.10
24558;BME280;12726;49.148;8.582;2023-07-20T13:24:06;100059.19;;;26.07;34.12
24558;BME280;12726;49.148;8.582;2023-07-20T13:26:52;100055.16;;;26.31;34.58
24558;BME280;12726;49.148;8.582;2023-07-20T13:29:38;100053.28;;;26.95;31.72
24558;BME280;12726;49.148;8.582;2023-07-20T13:32:24;100042.56;;;27.32;33.10
24558;BME280;12726;49.148;8.582;2023-07-20T13:35:09;100049.28;;;27.51;33.66
24558;BME280;12726;49.148;8.582;2023-07-20T13:37:54;100041.34;;;27.79;31.75
24558;BME280;12726;49.148;8.582;2023-07-20T13:40:40;100041.34;;;27.20;31.87
24558;BME280;12726;49.148;8.582;2023-07-20T13:43:26;100025.91;;;26.56;31.63
24558;BME280;12726;49.148;8.582;2023-07-20T13:46:13;100031.28;;;26.35;32.12
24558;BME280;12726;49.148;8.582;2023-07-20T13:48:58;100022.53;;;25.33;33.81
24558;BME280;12726;49.148;8.582;2023-07-20T13:51:43;100025.13;;;25.38;33.16
24558;BME280;12726;49.148;8.582;2023-07-20T13:54:29;100022.16;;;25.17;32.77
24558;BME280;12726;49.148;8.582;2023-07-20T13:57:14;100025.28;;;25.33;35.44
24558;BME280;12726;49.148;8.582;2023-07-20T13:59:59;100018.41;;;25.61;33.74
24558;BME280;12726;49.148;8.582;2023-07-20T14:02:47;100014.63;;;25.49;31.14
24558;BME280;12726;49.148;8.582;2023-07-20T14:05:33;100015.91;;;25.51;32.12
24558;BME280;12726;49.148;8.582;2023-07-20T14:08:20;100014.53;;;25.71;34.09
24558;BME280;12726;49.148;8.582;2023-07-20T14:11:06;100007.41;;;25.96;30.96
24558;BME280;12726;49.148;8.582;2023-07-20T14:13:51;100012.31;;;26.25;30.75
24558;BME280;12726;49.148;8.582;2023-07-20T14:16:36;100006.78;;;26.42;31.25
24558;BME280;12726;49.148;8.582;2023-07-20T14:19:23;100001.34;;;26.71;31.10
24558;BME280;12726;49.148;8.582;2023-07-20T14:22:09;100002.28;;;26.84;30.65
24558;BME280;12726;49.148;8.582;2023-07-20T14:24:54;99996.28;;;26.65;29.28
24558;BME280;12726;49.148;8.582;2023-07-20T14:27:43;99992.91;;;26.59;30.17
24558;BME280;12726;49.148;8.582;2023-07-20T14:30:28;99989.28;;;26.76;31.57
24558;BME280;12726;49.148;8.582;2023-07-20T14:33:13;99986.53;;;26.76;29.56